Tiempo atmosférico en la estación meteorológica de Capdepera, Illes Balears (57 m.)



Fecha
DESCASC
Temp. máxima en grados centígrados (hora)
DESCASC
Temp. mínima en grados centígrados (hora)
DESCASC
Temp. media en grados centígrados
DESCASC
Racha de viento máxima en m/sg (hora)
DESCASC
Velocidad máxima media en intervalos de 10 minutos(hora)
DESCASC
Precipitaciones diarias en mm
DESCASC
Precipitaciones de 00:00 a 06:00 en mm
DESCASC
Precipitaciones de 06:00 a 12:00 en mm
DESCASC
Precipitaciones de 12:00 a 18:00 en mm
DESCASC
Precipitaciones de 18:00 a 24:00 en mm
DESCASC
18-04-2019 16.6 (11:20) 14.6 (00:10) 15.6 14.17 (15:20) 11.39 (15:50) 0 0 0 0 0
17-04-2019 19.4 (13:30) 13.8 (06:10) 16.6 8.89 (17:20) 7.22 (23:10) -- -- 0 0 0
16-04-2019 19.1 (11:50) 13.2 (00:00) 16.2 9.44 (08:20) 6.67 (08:20) 0.3 0 0.3 0 0
15-04-2019 19.3 (14:40) 14 (00:00) 16.6 7.78 (20:40) 6.39 (20:30) 0 0 0 0 0
14-04-2019 19.7 (14:10) 12.8 (00:00) 16.3 7.78 (16:00) 6.11 (15:50) 0 0 0 0 0
13-04-2019 20.1 (12:50) 11.8 (00:00) 16 6.39 (13:50) 5.83 (13:30) 0 0 0 0 0
12-04-2019 17.8 (14:30) 13 (00:00) 15.4 12.22 (10:10) 10 (10:10) 0.6 0.5 0.1 0 0
11-04-2019 18.8 (15:40) 13.3 (00:00) 16 9.17 (08:50) 7.5 (09:40) 0 0 0 0 0
10-04-2019 20.7 (13:40) 12.9 (00:00) 16.8 10.28 (14:30) 7.5 (14:10) 0 0 0 0 0
09-04-2019 19.8 (11:10) 13.8 (00:00) 16.8 13.61 (16:00) 9.72 (12:10) 0 0 0 0 0
08-04-2019 22.4 (15:30) 11.3 (00:00) 16.8 10.83 (12:20) 7.78 (12:30) 0 0 0 0 0
07-04-2019 17.1 (11:30) 10.8 (00:00) 14 16.11 (16:00) 9.72 (14:50) 0 0 0 0 0
06-04-2019 18.5 (15:00) 10 (00:00) 14.3 12.78 (00:10) 7.22 (00:20) 3.8 3.8 0 0 0
05-04-2019 16.6 (13:30) 9.2 (00:00) 12.9 14.17 (19:10) 11.39 (17:50) 0 0 0 0 0
04-04-2019 15.2 (16:00) 10.7 (00:00) 12.9 17.22 (01:30) 14.17 (01:30) 1.1 1.1 0 0 0
03-04-2019 16.8 (14:20) 12.7 (00:00) 14.7 15 (15:20) 10.28 (23:30) 0 0 0 0 0
02-04-2019 -- (--) -- (--) -- -- (--) -- (--) 0 0 0 0 0
01-04-2019 18.7 (14:40) 13.3 (00:00) 16 8.89 (02:00) 7.22 (02:00) 0 0 0 0 0
31-03-2019 16.1 (13:20) 13.5 (00:00) 14.8 10 (15:50) 8.61 (16:10) 0 0 0 0 0
30-03-2019 16.4 (10:10) 12.6 (00:00) 14.5 7.78 (19:20) 6.67 (19:20) 0 0 0 0 0
29-03-2019 -- (--) -- (--) -- -- (--) -- (--) 0 0 0 0 0
28-03-2019 15.8 (16:30) 11.5 (00:00) 13.7 12.5 (00:10) 10.28 (00:30) 0 0 0 0 0
27-03-2019 -- (--) -- (--) -- -- (--) -- (--) -- 0 0 -- 0
26-03-2019 -- (--) -- (--) -- -- (--) -- (--) -- 0 -- 0 0
25-03-2019 20.2 (13:10) 12.4 (00:00) 16.3 -- (--) -- (--) 0 0 0 0 0
24-03-2019 19.6 (12:00) 11.6 (00:00) 15.6 -- (--) -- (--) 0 0 0 0 0
23-03-2019 18.4 (15:10) 12.8 (00:00) 15.6 -- (--) -- (--) 0 0 0 0 0
22-03-2019 17.1 (13:40) 12.6 (00:00) 14.9 -- (--) -- (--) 0 0 0 0 0
21-03-2019 13.8 (12:00) 11.9 (00:00) 12.8 -- (--) -- (--) 0.1 0.1 0 0 0

Gráficas

Temp. máximas Temp. mínimas Temp. medias Precipitaciones Rachas de viento máximas Velocidades máximas media en intervalos de 10 minutos

Datos horarios

Fecha y hora oficial Temperatura (ºC) Velocidad del viento (km/h) Dirección del viento Racha (km/h) Dirección de racha Precipitación (mm) Presión (hPa) Tendencia (hPa) Humedad (%)
2019-04-19 23:00:00 16.3 31 Nordeste 39 Este 0 -- -- 83
2019-04-19 22:00:00 15.9 26 Nordeste 34 Nordeste 0 -- -- 87
2019-04-19 21:00:00 15.9 21 Nordeste 35 Este 0 -- -- 89
2019-04-19 20:00:00 15.9 29 Este 37 Este 0 -- -- 89
2019-04-19 19:00:00 15.7 24 Este 55 Este 0 -- -- 92
2019-04-19 18:00:00 15.6 39 Este 53 Este 0 -- -- 92
2019-04-19 17:00:00 15.6 39 Este 54 Este 0 -- -- 92
2019-04-19 16:00:00 15.7 34 Este 49 Este 0 -- -- 92
2019-04-19 15:00:00 15.7 39 Este 55 Este 0 -- -- 90
2019-04-19 14:00:00 15.7 43 Este 54 Este 0 -- -- 90
2019-04-19 13:00:00 15.7 41 Este 54 Este 0 -- -- 90
2019-04-19 12:00:00 15.7 37 Este 50 Este 0 -- -- 89
2019-04-19 11:00:00 15.6 33 Este 49 Este 0 -- -- 89
2019-04-19 10:00:00 15.4 33 Este 48 Este 0 -- -- 90
2019-04-19 09:00:00 15.3 37 Este 51 Este 0 -- -- 92
2019-04-19 08:00:00 15.1 36 Este 42 Este 0 -- -- 95
2019-04-19 07:00:00 15 33 Sudeste 41 Sudeste 0 -- -- 94
2019-04-19 06:00:00 15.1 30 Sudeste 38 Sudeste 0 -- -- 94
2019-04-19 05:00:00 15.2 30 Sudeste 38 Sudeste 0 -- -- 94
2019-04-19 04:00:00 15.2 30 Sudeste 40 Sudeste 0 -- -- 93
2019-04-19 03:00:00 15.2 32 Sudeste 39 Este 0 -- -- 92
2019-04-19 02:00:00 15.4 31 Sudeste 37 Este 0 -- -- 89
2019-04-19 01:00:00 15.6 29 Sudeste 33 Sudeste 0 -- -- 87
2019-04-19 00:00:00 15.5 26 Sudeste 34 Sudeste 0 -- -- 89
2019-04-18 23:00:00 15.5 27 Sudeste 36 Sudeste 0 -- -- 90
2019-04-18 22:00:00 15.7 28 Sudeste 39 Este 0 -- -- 89
2019-04-18 21:00:00 15.6 28 Este 35 Este 0 -- -- 88
2019-04-18 20:00:00 15.5 26 Sudeste 43 Este 0 -- -- 88
2019-04-18 19:00:00 15.7 32 Sudeste 49 Este 0 -- -- 86
2019-04-18 18:00:00 15.6 33 Este 50 Sudeste 0 -- -- 87
2019-04-18 17:00:00 15.9 37 Sudeste 49 Sudeste 0 -- -- 85
2019-04-18 16:00:00 15.7 38 Este 51 Este 0 -- -- 88
2019-04-18 15:00:00 15.9 38 Este 50 Este 0 -- -- 89
2019-04-18 14:00:00 16.3 39 Este 50 Este 0 -- -- 88
2019-04-18 13:00:00 16 28 Este 39 Este 0 -- -- 89
2019-04-18 12:00:00 15.7 27 Este 34 Este 0 -- -- 91
2019-04-18 11:00:00 15.9 27 Este 40 Este 0 -- -- 92
2019-04-18 10:00:00 15.4 30 Este 37 Este 0 -- -- 93
2019-04-18 09:00:00 15.1 30 Este 39 Este 0 -- -- 94
2019-04-18 08:00:00 15 29 Este 50 Este 0 -- -- 94
2019-04-18 07:00:00 14.8 31 Este 43 Este 0 -- -- 92
2019-04-18 06:00:00 14.8 35 Este 43 Sudeste 0 -- -- 92
2019-04-18 05:00:00 14.7 31 Este 40 Este 0 -- -- 93
2019-04-18 04:00:00 14.7 32 Sudeste 39 Este 0 -- -- 94
2019-04-18 03:00:00 14.7 34 Sudeste 42 Sudeste 0 -- -- 96
2019-04-18 02:00:00 14.7 32 Este 38 Este 0 -- -- 95
2019-04-18 01:00:00 14.7 29 Este 35 Este 0 -- -- 94
2019-04-18 00:00:00 14.7 23 Este 31 Este 0 -- -- 94
2019-04-17 23:00:00 14.8 25 Sudeste 30 Este 0 -- -- 91
2019-04-17 22:00:00 14.8 22 Sudeste 26 Este 0 -- -- 89
2019-04-17 21:00:00 14.8 21 Sudeste 26 Sudeste 0 -- -- 88
2019-04-17 20:00:00 15.1 22 Sudeste 27 Sudeste 0 -- -- 86
2019-04-17 19:00:00 15.5 21 Sudeste 27 Sudeste 0 -- -- 84
2019-04-17 18:00:00 16 25 Sudeste 32 Sudeste 0 -- -- 81
2019-04-17 17:00:00 16.8 23 Sudeste 28 Sur 0 -- -- 77
2019-04-17 16:00:00 17.3 22 Sudeste 31 Sudeste 0 -- -- 74
2019-04-17 15:00:00 18.3 19 Sudeste 26 Sudeste 0 -- -- 72
2019-04-17 14:00:00 18.5 17 Sudeste 23 Sur 0 -- -- 72
2019-04-17 13:00:00 18.3 18 Sudeste 23 Sudeste 0 -- -- 74
2019-04-17 12:00:00 18.4 18 Sudeste 22 Sudeste 0 -- -- 74
2019-04-17 11:00:00 17.6 18 Sudeste 21 Sudeste 0 -- -- 79
2019-04-17 10:00:00 16.9 15 Sudeste 18 Sudeste 0 -- -- 79
2019-04-17 09:00:00 16.8 12 Sudeste 18 Este 0 -- -- 81
2019-04-17 08:00:00 15.4 12 Este 15 Este 0 -- -- 87
2019-04-17 07:00:00 14.1 9 Sudeste 13 Sudeste 0 -- -- 92
2019-04-17 06:00:00 13.9 7 Sudeste -- -- -- -- -- 92
2019-04-17 05:00:00 14 10 Sur 17 Sur 0 -- -- 91
2019-04-17 04:00:00 14.2 12 Sur 17 Sur 0 -- -- 92
2019-04-17 03:00:00 14.1 14 Sudeste 17 Sudeste 0 -- -- 93
2019-04-17 02:00:00 14.2 11 Este 15 Este 0 -- -- 93
2019-04-17 01:00:00 14.2 12 Este 18 Nordeste 0 -- -- 91
2019-04-17 00:00:00 14.4 12 Este 16 Este 0 -- -- 88
2019-04-16 23:00:00 14.9 13 Sudeste 17 Sudeste 0 -- -- 87
2019-04-16 22:00:00 15 13 Sudeste 16 Sudeste 0 -- -- 82
2019-04-16 21:00:00 15.2 12 Sudeste 17 Este 0 -- -- 74
2019-04-16 20:00:00 15.4 14 Sudeste 30 Norte 0 -- -- 87
2019-04-16 19:00:00 15.7 24 Norte 30 Norte 0 -- -- 82
2019-04-16 18:00:00 16.6 19 Norte 25 Norte 0 -- -- 78
2019-04-16 17:00:00 16.6 19 Norte 26 Nordeste 0 -- -- 75
2019-04-16 16:00:00 17.9 14 Nordeste 19 Nordeste 0 -- -- 65
2019-04-16 15:00:00 17.9 10 Nordeste 14 Nordeste 0 -- -- 62
2019-04-16 14:00:00 17.9 10 Nordeste 14 Nordeste 0 -- -- 64
2019-04-16 13:00:00 18.2 7 Este 12 Este 0 -- -- 66
2019-04-16 12:00:00 18.7 7 Sudeste 11 Este 0 -- -- 69
2019-04-16 11:00:00 18 5 Sudeste 12 Sur 0.1 -- -- 71
2019-04-16 10:00:00 16.1 8 Sur 14 Sur 0 -- -- 83
2019-04-16 09:00:00 14.1 9 Este 34 Sudeste 0.1 -- -- 89
2019-04-16 08:00:00 13.9 18 Sudeste 22 Sudeste 0.1 -- -- 90
2019-04-16 07:00:00 -- -- -- -- -- -- -- -- --
2019-04-16 06:00:00 13.8 0 Calma 21 Norte 0 -- -- 90
2019-04-16 05:00:00 13.6 13 Noroeste 18 Norte 0 -- -- 89
2019-04-16 04:00:00 13.8 3 Noroeste 13 Sudeste 0 -- -- 86
2019-04-16 03:00:00 14.1 13 Sur 23 Sur 0 -- -- 86
2019-04-16 02:00:00 14.2 20 Sur 25 Sudeste 0 -- -- 85
2019-04-16 01:00:00 14.3 21 Sur 25 Sur 0 -- -- 83
2019-04-16 00:00:00 14.4 23 Sur 26 Sur 0 -- -- 82
2019-04-15 23:00:00 14.4 22 Sudeste 26 Sudeste 0 -- -- 80
2019-04-15 22:00:00 14.4 20 Sudeste 26 Sudeste 0 -- -- 77
2019-04-15 21:00:00 14.6 22 Sudeste 28 Sudeste 0 -- -- 75
2019-04-15 20:00:00 15 18 Sudeste 22 Sur 0 -- -- 71
2019-04-15 19:00:00 -- -- -- -- -- -- -- -- --
2019-04-15 18:00:00 15.9 18 Sur 22 Sur 0 -- -- 61
2019-04-15 17:00:00 17.1 19 Sur 24 Sur 0 -- -- 56
2019-04-15 16:00:00 17.2 18 Sur 22 Sur 0 -- -- 58
2019-04-15 15:00:00 18.7 16 Sur 20 Sur 0 -- -- 59
2019-04-15 14:00:00 18.9 16 Sudeste 20 Sudeste 0 -- -- 59
2019-04-15 13:00:00 18.3 16 Sudeste 20 Sudeste 0 -- -- 62
2019-04-15 12:00:00 18 14 Sudeste 20 Este 0 -- -- 64
2019-04-15 11:00:00 17.4 14 Este 19 Este 0 -- -- 64
2019-04-15 10:00:00 17.4 15 Sudeste 19 Sudeste 0 -- -- 68
2019-04-15 09:00:00 16.7 10 Este 13 Este 0 -- -- 69
2019-04-15 08:00:00 15.7 8 Este 10 Este 0 -- -- 71
2019-04-15 07:00:00 14.1 -- -- 14 Norte 0 -- -- 74
2019-04-15 06:00:00 14.1 -- -- 15 Norte 0 -- -- 72
2019-04-15 05:00:00 14.3 -- -- 7 Norte 0 -- -- 78
2019-04-15 04:00:00 14 -- -- 7 Norte 0 -- -- 86
2019-04-15 03:00:00 14.2 -- -- 10 Norte 0 -- -- 85
2019-04-15 02:00:00 14.5 -- -- 12 Norte 0 -- -- 89
2019-04-15 01:00:00 14.6 -- -- 16 Norte 0 -- -- 89
2019-04-15 00:00:00 14.9 -- -- 15 Norte 0 -- -- 89
2019-04-14 23:00:00 15.1 -- -- 15 Norte 0 -- -- 87
2019-04-14 22:00:00 15.1 -- -- 17 Norte 0 -- -- 85
2019-04-14 21:00:00 15.3 -- -- 18 Norte 0 -- -- 85
2019-04-14 20:00:00 15.9 -- -- 15 Norte 0 -- -- 83
2019-04-14 19:00:00 15.9 -- -- 22 Norte 0 -- -- 82
2019-04-14 18:00:00 15.9 -- -- 22 Norte 0 -- -- 82
2019-04-14 17:00:00 16.8 -- -- 26 Norte 0 -- -- 83
2019-04-14 16:00:00 18.7 -- -- 28 Norte 0 -- -- 74
2019-04-14 15:00:00 17.9 -- -- 22 Norte 0 -- -- 74
2019-04-14 14:00:00 19.4 -- -- 22 Norte 0 -- -- 72
2019-04-14 13:00:00 18.1 -- -- 15 Norte 0 -- -- 79
2019-04-14 12:00:00 18.2 -- -- 14 Norte 0 -- -- 77
2019-04-14 11:00:00 18.6 -- -- 28 Norte 0 -- -- 71
2019-04-14 10:00:00 19.1 -- -- 23 Norte 0 -- -- 72
2019-04-14 09:00:00 16.4 -- -- 21 Norte 0 -- -- 77
2019-04-14 08:00:00 14.5 -- -- 18 Norte 0 -- -- 71
2019-04-14 07:00:00 13.2 -- -- 15 Norte 0 -- -- 74
2019-04-14 06:00:00 13.6 -- -- 14 Norte 0 -- -- 74
2019-04-14 05:00:00 13.1 -- -- 14 Norte 0 -- -- 85
2019-04-14 04:00:00 12.9 -- -- 19 Norte 0 -- -- 86
2019-04-14 03:00:00 13.3 -- -- 19 Norte 0 -- -- 86
2019-04-14 02:00:00 12.8 -- -- 12 Norte 0 -- -- 85
2019-04-14 01:00:00 13.3 -- -- 10 Norte 0 -- -- 85
2019-04-14 00:00:00 13.3 -- -- 12 Norte 0 -- -- 86
2019-04-13 23:00:00 13.9 -- -- 10 Norte 0 -- -- 86
2019-04-13 22:00:00 14.2 -- -- 3 Norte 0 -- -- 84
2019-04-13 21:00:00 14.5 -- -- 5 Norte 0 -- -- 83
2019-04-13 20:00:00 15.2 -- -- 17 Norte 0 -- -- 77
2019-04-13 19:00:00 16 -- -- 17 Norte 0 -- -- 74
2019-04-13 18:00:00 16 -- -- 20 Norte 0 -- -- 71
2019-04-13 17:00:00 16.7 -- -- 20 Norte 0 -- -- 65
2019-04-13 16:00:00 17.2 -- -- 22 Norte 0 -- -- 64
2019-04-13 15:00:00 17.2 -- -- 18 Norte 0 -- -- 67
2019-04-13 14:00:00 19.5 -- -- 23 Norte 0 -- -- 66
2019-04-13 13:00:00 19.6 -- -- 22 Norte 0 -- -- 62
2019-04-13 12:00:00 19.3 -- -- 23 Norte 0 -- -- 59
2019-04-13 11:00:00 19.2 -- -- 16 Norte 0 -- -- 59
2019-04-13 10:00:00 18 -- -- 9 Norte 0 -- -- 63
2019-04-13 09:00:00 17.1 -- -- 10 Norte 0 -- -- 58
2019-04-13 08:00:00 15.1 -- -- 13 Norte 0 -- -- 55
2019-04-13 07:00:00 14.1 -- -- 8 Norte 0 -- -- 55
2019-04-13 06:00:00 13.4 -- -- 20 Norte 0 -- -- 61
2019-04-13 05:00:00 12.8 -- -- 21 Norte 0 -- -- 69
2019-04-13 04:00:00 12.4 -- -- 23 Norte 0 -- -- 74
2019-04-13 03:00:00 12 -- -- 19 Norte 0 -- -- 74
2019-04-13 02:00:00 12 -- -- 12 Norte 0 -- -- 74
2019-04-13 01:00:00 12.8 -- -- 10 Norte 0 -- -- 73
2019-04-13 00:00:00 13 -- -- 6 Norte 0 -- -- 73
2019-04-12 23:00:00 13.2 -- -- 11 Norte 0 -- -- 72
2019-04-12 22:00:00 13.4 -- -- 10 Norte 0 -- -- 71
2019-04-12 21:00:00 13.4 -- -- 9 Norte 0 -- -- 70
2019-04-12 20:00:00 13.8 -- -- 10 Norte 0 -- -- 68
2019-04-12 19:00:00 14.2 -- -- 16 Norte 0 -- -- 67
2019-04-12 18:00:00 14.6 -- -- 24 Norte 0 -- -- 66
2019-04-12 17:00:00 14.6 -- -- 33 Norte 0 -- -- 65
2019-04-12 16:00:00 14.7 -- -- 37 Norte 0 -- -- 67
2019-04-12 15:00:00 15.1 -- -- 31 Norte 0 -- -- 68
2019-04-12 14:00:00 16.5 -- -- 27 Norte 0 -- -- 67
2019-04-12 13:00:00 16.3 -- -- 38 Norte 0 -- -- 66
2019-04-12 12:00:00 -- -- -- -- -- -- -- -- --
2019-04-12 11:00:00 15.6 -- -- 44 Norte 0 -- -- 66
2019-04-12 10:00:00 16 -- -- 42 Norte 0.1 -- -- 65
2019-04-12 09:00:00 15 -- -- 40 Norte 0 -- -- 74
2019-04-12 08:00:00 14.7 -- -- 34 Norte 0 -- -- 78
2019-04-12 07:00:00 14.8 -- -- 39 Norte 0 -- -- 75
2019-04-12 06:00:00 14.4 -- -- 21 Norte 0 -- -- 71
2019-04-12 05:00:00 13.2 -- -- 19 Norte 0 -- -- 76
2019-04-12 04:00:00 13.5 -- -- 28 Norte 0.5 -- -- 87
2019-04-12 03:00:00 14 -- -- 38 Norte 0 -- -- 79
2019-04-12 02:00:00 14 -- -- 16 Norte 0 -- -- 68
2019-04-12 01:00:00 13.9 -- -- 16 Norte 0 -- -- 83
2019-04-12 00:00:00 14.1 -- -- 11 Norte 0 -- -- 80
2019-04-11 23:00:00 14.2 -- -- 10 Norte 0 -- -- 79
2019-04-11 22:00:00 14.4 -- -- 9 Norte 0 -- -- 78
2019-04-11 21:00:00 14.3 -- -- 12 Norte 0 -- -- 78
2019-04-11 20:00:00 14.7 -- -- 12 Norte 0 -- -- 74
2019-04-11 19:00:00 14.7 -- -- 11 Norte 0 -- -- 77
2019-04-11 18:00:00 15.1 -- -- 19 Norte 0 -- -- 78
2019-04-11 17:00:00 15.4 -- -- 20 Norte 0 -- -- 77
2019-04-11 16:00:00 16.3 -- -- 19 Norte 0 -- -- 71
2019-04-11 15:00:00 18.3 -- -- 18 Norte 0 -- -- 67
2019-04-11 14:00:00 17 -- -- 9 Norte 0 -- -- --
2019-04-11 13:00:00 17.3 -- -- 14 Norte 0 -- -- --
2019-04-11 12:00:00 17.2 -- -- 15 Norte 0 -- -- --
2019-04-11 11:00:00 16.7 -- -- 26 Norte 0 -- -- --
2019-04-11 10:00:00 16.8 -- -- 33 Norte 0 -- -- --
2019-04-11 09:00:00 15.4 -- -- 33 Norte 0 -- -- --
2019-04-11 08:00:00 14.6 -- -- 27 Norte 0 -- -- --
2019-04-11 07:00:00 14.6 -- -- 31 Norte 0 -- -- --
2019-04-11 06:00:00 14.8 -- -- 30 Norte 0 -- -- --
2019-04-11 05:00:00 14.5 -- -- 20 Norte 0 -- -- --
2019-04-11 04:00:00 14 -- -- 27 Norte 0 -- -- --
2019-04-11 03:00:00 13.8 -- -- 21 Norte 0 -- -- --
2019-04-11 02:00:00 13.8 -- -- 11 Norte 0 -- -- --
2019-04-11 01:00:00 13.4 -- -- 10 Norte 0 -- -- --
2019-04-11 00:00:00 13.5 -- -- 11 Norte 0 -- -- --
2019-04-10 23:00:00 13.7 -- -- 6 Norte 0 -- -- --
2019-04-10 22:00:00 13.7 -- -- 4 Norte 0 -- -- --
2019-04-10 21:00:00 13.9 -- -- 6 Norte 0 -- -- --
2019-04-10 20:00:00 14.4 -- -- 5 Norte 0 -- -- --
2019-04-10 19:00:00 15 -- -- 23 Norte 0 -- -- --
2019-04-10 18:00:00 15.1 -- -- 27 Norte 0 -- -- --
2019-04-10 17:00:00 16.4 -- -- 19 Norte 0 -- -- --
2019-04-10 16:00:00 15.8 -- -- 30 Norte 0 -- -- --
2019-04-10 15:00:00 16.4 -- -- 37 Norte 0 -- -- --
2019-04-10 14:00:00 18.5 -- -- 34 Norte 0 -- -- --
2019-04-10 13:00:00 19 -- -- 35 Norte 0 -- -- --
2019-04-10 12:00:00 17.1 -- -- 36 Norte 0 -- -- --
2019-04-10 11:00:00 16.5 -- -- 26 Norte 0 -- -- --
2019-04-10 10:00:00 14.1 -- -- 26 Norte 0 -- -- --
2019-04-10 09:00:00 13.3 -- -- 27 Norte 0 -- -- --
2019-04-10 08:00:00 14.1 -- -- 21 Norte 0 -- -- --
2019-04-10 07:00:00 13.4 -- -- 14 Norte 0 -- -- --
2019-04-10 06:00:00 13.3 -- -- 13 Norte 0 -- -- --
2019-04-10 05:00:00 13 -- -- 15 Norte 0 -- -- --
2019-04-10 04:00:00 13.2 -- -- 18 Norte 0 -- -- --
2019-04-10 03:00:00 13.6 -- -- 22 Norte 0 -- -- --
2019-04-10 02:00:00 13.8 -- -- 27 Norte 0 -- -- --
2019-04-10 01:00:00 13.7 -- -- 26 Norte 0 -- -- --
2019-04-10 00:00:00 14.1 -- -- 27 Norte 0 -- -- --
2019-04-09 23:00:00 14.1 -- -- 21 Norte 0 -- -- --
2019-04-09 22:00:00 14.8 -- -- 19 Norte 0 -- -- --
2019-04-09 21:00:00 14.7 -- -- 12 Norte 0 -- -- --
2019-04-09 20:00:00 15.5 -- -- 12 Norte 0 -- -- --
2019-04-09 19:00:00 15.9 -- -- 12 Norte 0 -- -- --
2019-04-09 18:00:00 16.8 -- -- 36 Norte 0 -- -- --
2019-04-09 17:00:00 17 -- -- 43 Norte 0 -- -- --
2019-04-09 16:00:00 17.5 -- -- 49 Norte 0 -- -- --
2019-04-09 15:00:00 17.9 -- -- 47 Norte 0 -- -- --
2019-04-09 14:00:00 18.3 -- -- 39 Norte 0 -- -- --
2019-04-09 13:00:00 17.8 -- -- 48 Norte 0 -- -- --
2019-04-09 12:00:00 17.4 -- -- 45 Norte 0 -- -- --
2019-04-09 11:00:00 18.8 -- -- 40 Norte 0 -- -- --
2019-04-09 10:00:00 17.9 -- -- 36 Norte 0 -- -- --
2019-04-09 09:00:00 16 -- -- 33 Norte 0 -- -- --
2019-04-09 08:00:00 13.9 -- -- 24 Norte 0 -- -- --
2019-04-09 07:00:00 14 -- -- 26 Norte 0 -- -- --
2019-04-09 06:00:00 14.5 -- -- 15 Norte 0 -- -- --
2019-04-09 05:00:00 14.9 -- -- 18 Norte 0 -- -- --
2019-04-09 04:00:00 14.9 -- -- 18 Norte 0 -- -- --
2019-04-09 03:00:00 15.6 -- -- 21 Norte 0 -- -- --
2019-04-09 02:00:00 15.1 -- -- 22 Norte 0 -- -- --
2019-04-09 01:00:00 15.1 -- -- 23 Norte 0 -- -- --
2019-04-09 00:00:00 15.3 -- -- 23 Norte 0 -- -- --
2019-04-08 23:00:00 15.1 -- -- 22 Norte 0 -- -- --
2019-04-08 22:00:00 14.8 -- -- 17 Norte 0 -- -- --
2019-04-08 21:00:00 14.7 -- -- 12 Norte 0 -- -- --
2019-04-08 20:00:00 15.4 -- -- 13 Norte 0 -- -- --
2019-04-08 19:00:00 15.1 -- -- 28 Norte 0 -- -- --
2019-04-08 18:00:00 15.8 -- -- 27 Norte 0 -- -- --
2019-04-08 17:00:00 16.7 -- -- 26 Norte 0 -- -- --
2019-04-08 16:00:00 20.6 -- -- 29 Norte 0 -- -- --
2019-04-08 15:00:00 19.9 -- -- 30 Norte 0 -- -- --
2019-04-08 14:00:00 20.9 -- -- 30 Norte 0 -- -- --
2019-04-08 13:00:00 16.6 -- -- 39 Norte 0 -- -- --
2019-04-08 12:00:00 15.7 -- -- 32 Norte 0 -- -- --
2019-04-08 11:00:00 15.5 -- -- 30 Norte 0 -- -- --
2019-04-08 10:00:00 15.1 -- -- 24 Norte 0 -- -- --
2019-04-08 09:00:00 14.2 -- -- 19 Norte 0 -- -- --
2019-04-08 08:00:00 12.2 -- -- 15 Norte 0 -- -- --
2019-04-08 07:00:00 11.6 -- -- 13 Norte 0 -- -- --
2019-04-08 06:00:00 11.5 -- -- 11 Norte 0 -- -- --
2019-04-08 05:00:00 11.5 -- -- 12 Norte 0 -- -- --
2019-04-08 04:00:00 11.7 -- -- 13 Norte 0 -- -- --
2019-04-08 03:00:00 11.7 -- -- 10 Norte 0 -- -- --
2019-04-08 02:00:00 11.5 -- -- 10 Norte 0 -- -- --
2019-04-08 01:00:00 11.7 -- -- 13 Norte 0 -- -- --
2019-04-08 00:00:00 12.1 -- -- 17 Norte 0 -- -- --
2019-04-07 23:00:00 12.6 -- -- 28 Norte 0 -- -- --
2019-04-07 22:00:00 12.6 -- -- 24 Norte 0 -- -- --
2019-04-07 21:00:00 12.7 -- -- 28 Norte 0 -- -- --
2019-04-07 20:00:00 13 -- -- 37 Norte 0 -- -- --
2019-04-07 19:00:00 13.1 -- -- 45 Norte 0 -- -- --
2019-04-07 18:00:00 14.1 -- -- 45 Norte 0 -- -- --
2019-04-07 17:00:00 14.9 -- -- 51 Norte 0 -- -- --
2019-04-07 16:00:00 14.6 -- -- 58 Norte 0 -- -- --
2019-04-07 15:00:00 15 -- -- 53 Norte 0 -- -- --
2019-04-07 14:00:00 15.6 -- -- 51 Norte 0 -- -- --
2019-04-07 13:00:00 14.8 -- -- 45 Norte 0 -- -- --
2019-04-07 12:00:00 15.8 -- -- 45 Norte 0 -- -- --
2019-04-07 11:00:00 15.8 -- -- 34 Norte 0 -- -- --
2019-04-07 10:00:00 15.3 -- -- 31 Norte 0 -- -- --
2019-04-07 09:00:00 13.8 -- -- 21 Norte 0 -- -- --
2019-04-07 08:00:00 10.8 -- -- 18 Norte 0 -- -- --
2019-04-07 07:00:00 11.1 -- -- 19 Norte 0 -- -- --
2019-04-07 06:00:00 11.6 -- -- 17 Norte 0 -- -- --
2019-04-07 05:00:00 11.7 -- -- 15 Norte 0 -- -- --
2019-04-07 04:00:00 11.7 -- -- 16 Norte 0 -- -- --
2019-04-07 03:00:00 11.8 -- -- 17 Norte 0 -- -- --
2019-04-07 02:00:00 11.7 -- -- 11 Norte 0 -- -- --
2019-04-07 01:00:00 11.8 -- -- 13 Norte 0 -- -- --
2019-04-07 00:00:00 12.5 -- -- 15 Norte 0 -- -- --
2019-04-06 23:00:00 13 -- -- 21 Norte 0 -- -- --
2019-04-06 22:00:00 13 -- -- 24 Norte 0 -- -- --
2019-04-06 21:00:00 13.3 -- -- 22 Norte 0 -- -- --
2019-04-06 20:00:00 13.8 -- -- 28 Norte 0 -- -- --
2019-04-06 19:00:00 14.2 -- -- 39 Norte 0 -- -- --
2019-04-06 18:00:00 15.3 -- -- 38 Norte 0 -- -- --
2019-04-06 17:00:00 16 -- -- 42 Norte 0 -- -- --
2019-04-06 16:00:00 16.5 -- -- 40 Norte 0 -- -- --
2019-04-06 15:00:00 17.9 -- -- 31 Norte 0 -- -- --
2019-04-06 14:00:00 15.9 -- -- 29 Norte 0 -- -- --
2019-04-06 13:00:00 16.4 -- -- 34 Norte 0 -- -- --
2019-04-06 12:00:00 15.6 -- -- 27 Norte 0 -- -- --
2019-04-06 11:00:00 13.9 -- -- 25 Norte 0 -- -- --
2019-04-06 10:00:00 12.3 -- -- 26 Norte 0 -- -- --
2019-04-06 09:00:00 11.5 -- -- 23 Norte 0 -- -- --
2019-04-06 08:00:00 10.5 -- -- 24 Norte 0 -- -- --
2019-04-06 07:00:00 10.2 -- -- -- -- -- -- -- --
2019-04-06 06:00:00 10.2 -- -- 32 Norte 0.1 -- -- --
2019-04-06 05:00:00 11.3 -- -- 22 Norte 0 -- -- --
2019-04-06 04:00:00 11.2 -- -- 25 Norte 3.7 -- -- --
2019-04-06 03:00:00 13.1 -- -- 28 Norte 0 -- -- --
2019-04-06 02:00:00 13.1 -- -- 29 Norte 0 -- -- --
2019-04-06 01:00:00 14.1 -- -- 46 Norte 0 -- -- --
2019-04-06 00:00:00 14.4 -- -- 28 Norte 0 -- -- --
2019-04-05 23:00:00 14 -- -- 42 Norte 0 -- -- --
2019-04-05 22:00:00 14.6 -- -- 46 Norte 0 -- -- --
2019-04-05 21:00:00 14.6 -- -- 46 Norte 0 -- -- --
2019-04-05 20:00:00 14.7 -- -- 51 Norte 0 -- -- --
2019-04-05 19:00:00 14.8 -- -- 48 Norte 0 -- -- --
2019-04-05 18:00:00 14.9 -- -- 47 Norte 0 -- -- --
2019-04-05 17:00:00 15.3 -- -- 46 Norte 0 -- -- --
2019-04-05 16:00:00 15.3 -- -- 45 Norte 0 -- -- --
2019-04-05 15:00:00 15.2 -- -- 47 Norte 0 -- -- --
2019-04-05 14:00:00 15.5 -- -- 45 Norte 0 -- -- --
2019-04-05 13:00:00 15.6 -- -- 41 Norte 0 -- -- --
2019-04-05 12:00:00 14.9 -- -- 35 Norte 0 -- -- --
2019-04-05 11:00:00 14.4 -- -- 34 Norte 0 -- -- --
2019-04-05 10:00:00 14.5 -- -- 24 Norte 0 -- -- --
2019-04-05 09:00:00 13 -- -- 18 Norte 0 -- -- --
2019-04-05 08:00:00 11.3 -- -- 13 Norte 0 -- -- --
2019-04-05 07:00:00 9.5 -- -- 13 Norte 0 -- -- --
2019-04-05 06:00:00 9.5 -- -- 16 Norte 0 -- -- --
2019-04-05 05:00:00 10.3 -- -- 14 Norte 0 -- -- --
2019-04-05 04:00:00 11 -- -- 11 Norte 0 -- -- --
2019-04-05 03:00:00 10.6 -- -- 10 Norte 0 -- -- --
2019-04-05 02:00:00 10.4 -- -- 13 Norte 0 -- -- --
2019-04-05 01:00:00 11 -- -- 14 Norte 0 -- -- --
2019-04-05 00:00:00 11 -- -- 9 Norte 0 -- -- --
2019-04-04 23:00:00 11.3 -- -- 15 Norte 0 -- -- --
2019-04-04 22:00:00 11.4 -- -- 12 Norte 0 -- -- --
2019-04-04 21:00:00 11.7 -- -- 22 Norte 0 -- -- --
2019-04-04 20:00:00 12.1 -- -- 27 Norte 0 -- -- --
2019-04-04 19:00:00 12.6 -- -- 33 Norte 0 -- -- --
2019-04-04 18:00:00 13.4 -- -- 35 Norte 0 -- -- --
2019-04-04 17:00:00 14 -- -- 43 Norte 0 -- -- --
2019-04-04 16:00:00 14.1 -- -- 44 Norte 0 -- -- --
2019-04-04 15:00:00 14.5 -- -- 44 Norte 0 -- -- --
2019-04-04 14:00:00 -- -- -- -- -- -- -- -- --
2019-04-04 13:00:00 14.7 -- -- 44 Norte 0 -- -- --
2019-04-04 12:00:00 13.6 -- -- 48 Norte 0 -- -- --
2019-04-04 11:00:00 12.7 -- -- 24 Norte 0 -- -- --
2019-04-04 10:00:00 11.8 -- -- 25 Norte 0 -- -- --
2019-04-04 09:00:00 11.5 -- -- 30 Norte 0 -- -- --
2019-04-04 08:00:00 11.3 24 Norte 34 Norte 0 -- -- --
2019-04-04 07:00:00 11.3 30 Norte 42 Norte 0 -- -- --
2019-04-04 06:00:00 11.5 33 Norte 43 Norte 0 -- -- --
2019-04-04 05:00:00 11.2 32 Norte 38 Norte 0 -- -- --
2019-04-04 04:00:00 11 31 Norte 49 Norte 0 -- -- --
2019-04-04 03:00:00 11.1 43 Norte 52 Norte 0.4 -- -- --
2019-04-04 02:00:00 10.8 45 Norte 62 Norte 0.7 -- -- --
2019-04-04 01:00:00 12 48 Norte 58 Norte 0 -- -- --
2019-04-04 00:00:00 13.5 21 Norte 52 Norte 0 -- -- --
2019-04-03 23:00:00 14.3 9 Norte 15 Norte 0 -- -- --
2019-04-03 22:00:00 14.5 4 Norte 23 Norte 0 -- -- --
2019-04-03 21:00:00 14.7 9 Norte 26 Norte 0 -- -- --
2019-04-03 20:00:00 15.3 8 Norte 32 Norte 0 -- -- --
2019-04-03 19:00:00 16.2 17 Norte 36 Norte 0 -- -- --
2019-04-03 18:00:00 15.8 24 Norte 46 Norte 0 -- -- --
2019-04-03 17:00:00 16 29 Norte 49 Norte 0 -- -- --
2019-04-03 16:00:00 16.3 31 Norte 54 Norte 0 -- -- --
2019-04-03 15:00:00 16 33 Norte 51 Norte 0 -- -- --
2019-04-03 14:00:00 16.4 31 Norte 49 Norte 0 -- -- --
2019-04-03 13:00:00 15.6 28 Norte 48 Norte 0 -- -- --
2019-04-03 12:00:00 15.7 23 Norte 43 Norte 0 -- -- --
2019-04-03 11:00:00 15.6 21 Norte 39 Norte 0 -- -- --
2019-04-03 10:00:00 15.2 13 Norte 31 Norte 0 -- -- --
2019-04-03 09:00:00 15.4 7 Norte 22 Norte 0 -- -- --
2019-04-03 08:00:00 13.2 6 Norte 18 Norte 0 -- -- --
2019-04-03 07:00:00 13.1 5 Norte 16 Norte 0 -- -- --
2019-04-03 06:00:00 12.9 4 Norte 13 Norte 0 -- -- --
2019-04-03 05:00:00 13 3 Norte 11 Norte 0 -- -- --
2019-04-03 04:00:00 13.1 4 Norte 11 Norte 0 -- -- --
2019-04-03 03:00:00 13.5 2 Norte 9 Norte 0 -- -- --
2019-04-03 02:00:00 13.8 3 Norte 7 Norte 0 -- -- --
2019-04-03 01:00:00 13.6 3 Norte 15 Norte 0 -- -- --
2019-04-03 00:00:00 13.3 5 Norte 12 Norte 0 -- -- --
2019-04-02 23:00:00 13.5 4 Norte 9 Norte 0 -- -- --
2019-04-02 22:00:00 13.9 0 Calma 8 Norte 0 -- -- --
2019-04-02 21:00:00 14.3 7 Norte 9 Norte 0 -- -- --
2019-04-02 20:00:00 14.4 4 Nordeste 12 Norte 0 -- -- --
2019-04-02 19:00:00 15.8 13 Norte 18 Norte 0 -- -- --
2019-04-02 18:00:00 16.4 16 Norte 22 Noroeste 0 -- -- --
2019-04-02 17:00:00 16.7 18 Norte 25 Noroeste 0 -- -- --
2019-04-02 16:00:00 17.1 23 Noroeste 36 Sudoeste 0 -- -- --
2019-04-02 15:00:00 15.8 20 Sur 36 Sur 0 -- -- --
2019-04-02 14:00:00 15.2 19 Sur -- -- -- -- -- --
2019-04-02 13:00:00 -- -- -- -- -- -- -- -- --
2019-04-02 12:00:00 15.7 22 Sur -- -- -- -- -- --
2019-04-02 11:00:00 -- -- -- -- -- -- -- -- --
2019-04-02 10:00:00 -- -- -- -- -- -- -- -- --
2019-04-02 09:00:00 14.7 -- -- 11 Norte 0 -- -- 75
2019-04-02 08:00:00 12.2 -- -- 10 Norte 0 -- -- 91
2019-04-02 07:00:00 12.3 -- -- -- -- 0 -- -- 94
2019-04-02 06:00:00 12.7 -- -- -- -- 0 -- -- 94
2019-04-02 05:00:00 12.7 -- -- -- -- 0 -- -- 94
2019-04-02 04:00:00 12.7 -- -- 10 Norte 0 -- -- 94
2019-04-02 03:00:00 13 -- -- 12 Norte 0 -- -- 94
2019-04-02 02:00:00 13.3 -- -- -- -- 0 -- -- 93
2019-04-02 01:00:00 13.3 -- -- -- -- 0 -- -- 92
2019-04-02 00:00:00 13.4 -- -- -- -- 0 -- -- 91
2019-04-01 23:00:00 13.7 -- -- -- -- 0 -- -- 91
2019-04-01 22:00:00 14 -- -- -- -- 0 -- -- 91
2019-04-01 21:00:00 14.3 -- -- 8 Norte 0 -- -- 91
2019-04-01 20:00:00 14.1 -- -- 9 Norte 0 -- -- 92
2019-04-01 19:00:00 14.4 -- -- 14 Norte 0 -- -- 90
2019-04-01 18:00:00 14.9 -- -- 17 Norte 0 -- -- 85
2019-04-01 17:00:00 17.1 -- -- 15 Norte 0 -- -- 73
2019-04-01 16:00:00 16 -- -- -- -- -- -- -- 76
2019-04-01 15:00:00 18.3 -- -- 16 Norte 0 -- -- 67
2019-04-01 14:00:00 17.2 -- -- 12 Norte 0 -- -- 70
2019-04-01 13:00:00 16 -- -- 13 Norte 0 -- -- 78
2019-04-01 12:00:00 15.3 -- -- 19 Norte 0 -- -- 79
2019-04-01 11:00:00 14.4 -- -- 22 Norte 0 -- -- 81
2019-04-01 10:00:00 14.2 -- -- 19 Norte 0 -- -- 81
2019-04-01 09:00:00 13.9 -- -- 18 Norte 0 -- -- 83
2019-04-01 08:00:00 13.7 -- -- 17 Norte 0 -- -- 85
2019-04-01 07:00:00 13.7 -- -- 21 Norte 0 -- -- 91
2019-04-01 06:00:00 13.7 -- -- 20 Norte 0 -- -- 90
2019-04-01 05:00:00 13.6 -- -- 26 Norte 0 -- -- 85
2019-04-01 04:00:00 13.6 -- -- 25 Norte 0 -- -- 90
2019-04-01 03:00:00 13.6 -- -- 31 Norte 0 -- -- 91
2019-04-01 02:00:00 13.8 -- -- 32 Norte 0 -- -- 89
2019-04-01 01:00:00 13.9 -- -- 26 Norte 0 -- -- 93
2019-04-01 00:00:00 13.7 -- -- 25 Norte 0 -- -- 95
2019-03-31 23:00:00 13.9 -- -- 32 Norte 0 -- -- 95
2019-03-31 22:00:00 13.9 -- -- 28 Norte 0 -- -- 95
2019-03-31 21:00:00 13.9 -- -- 31 Norte 0 -- -- 95
2019-03-31 20:00:00 14.1 -- -- 30 Norte 0 -- -- 94
2019-03-31 19:00:00 14.3 -- -- 31 Norte 0 -- -- 94
2019-03-31 18:00:00 14.6 -- -- 28 Norte 0 -- -- 94
2019-03-31 17:00:00 14.8 -- -- 36 Norte 0 -- -- 93
2019-03-31 16:00:00 14.9 -- -- 36 Norte 0 -- -- 92
2019-03-31 15:00:00 15.5 -- -- 35 Norte 0 -- -- 88
2019-03-31 14:00:00 15.6 -- -- 34 Norte 0 -- -- 87
2019-03-31 13:00:00 15.6 -- -- 34 Norte 0 -- -- 87
2019-03-31 12:00:00 15.3 -- -- 32 Norte 0 -- -- 87
2019-03-31 11:00:00 15.4 -- -- 31 Norte 0 -- -- 86
2019-03-31 10:00:00 15.3 -- -- 31 Norte 0 -- -- 86
2019-03-31 09:00:00 14.7 -- -- 28 Norte 0 -- -- 92
2019-03-31 08:00:00 13.8 -- -- 25 Norte 0 -- -- 96
2019-03-31 07:00:00 13.6 -- -- 25 Norte 0 -- -- 96
2019-03-31 06:00:00 13.7 -- -- 26 Norte 0 -- -- 96
2019-03-31 05:00:00 13.6 -- -- 20 Norte 0 -- -- 96
2019-03-31 03:00:00 13.9 -- -- 19 Norte 0 -- -- 96
2019-03-31 01:00:00 14 -- -- 17 Norte 0 -- -- 96
2019-03-31 00:00:00 14.1 -- -- 19 Norte 0 -- -- 95
2019-03-30 23:00:00 14.2 -- -- 20 Norte 0 -- -- 93
2019-03-30 22:00:00 14.2 -- -- 22 Norte 0 -- -- 92
2019-03-30 21:00:00 14.2 -- -- 25 Norte 0 -- -- 94
2019-03-30 20:00:00 14.3 -- -- 28 Norte 0 -- -- 94
2019-03-30 19:00:00 14.1 -- -- 27 Norte 0 -- -- 94
2019-03-30 18:00:00 14.3 -- -- 27 Norte 0 -- -- 94
2019-03-30 17:00:00 14.5 -- -- 26 Norte 0 -- -- 94
2019-03-30 16:00:00 14.9 -- -- 23 Norte 0 -- -- 90
2019-03-30 15:00:00 15.1 -- -- 24 Norte 0 -- -- 87
2019-03-30 14:00:00 15.5 -- -- 22 Norte 0 -- -- 85
2019-03-30 13:00:00 15.4 -- -- 18 Norte 0 -- -- 81
2019-03-30 12:00:00 15.6 -- -- 20 Norte 0 -- -- 77
2019-03-30 11:00:00 15.3 -- -- 19 Norte 0 -- -- 74
2019-03-30 10:00:00 16.1 -- -- 21 Norte 0 -- -- 71
2019-03-30 09:00:00 14.8 -- -- 22 Norte 0 -- -- 72
2019-03-30 08:00:00 14.1 -- -- 21 Norte 0 -- -- 76
2019-03-30 07:00:00 13 -- -- 19 Norte 0 -- -- 81
2019-03-30 06:00:00 12.7 -- -- -- -- 0 -- -- 79
2019-03-30 05:00:00 12.9 -- -- 16 Norte 0 -- -- 77
2019-03-30 04:00:00 13.1 -- -- 21 Norte 0 -- -- 79
2019-03-30 03:00:00 13.2 -- -- 22 Norte 0 -- -- 78
2019-03-30 02:00:00 13.2 -- -- 27 Norte 0 -- -- 78
2019-03-30 01:00:00 13.1 -- -- 24 Norte 0 -- -- 79
2019-03-30 00:00:00 12.9 -- -- 24 Norte 0 -- -- 79
2019-03-29 23:00:00 12.8 -- -- 24 Norte 0 -- -- 80
2019-03-29 22:00:00 12.9 -- -- 24 Norte 0 -- -- 81
2019-03-29 21:00:00 13 -- -- 20 Norte 0 -- -- 84
2019-03-29 20:00:00 12.9 -- -- 23 Norte 0 -- -- 84
2019-03-29 19:00:00 13.5 -- -- 23 Norte 0 -- -- 82
2019-03-29 18:00:00 13.8 -- -- 22 Norte 0 -- -- 81
2019-03-29 17:00:00 15.4 -- -- 22 Norte 0 -- -- 73
2019-03-29 16:00:00 16.8 -- -- 22 Norte 0 -- -- 64
2019-03-29 15:00:00 15.6 -- -- 10 Norte 0 -- -- 66
2019-03-29 14:00:00 16.2 -- -- 10 Norte 0 -- -- 62
2019-03-29 13:00:00 16 -- -- -- -- -- -- -- 64
2019-03-29 12:00:00 -- -- -- -- -- -- -- -- --
2019-03-29 11:00:00 15.2 -- -- 21 Norte 0 -- -- 68
2019-03-29 10:00:00 -- -- -- -- -- -- -- -- --
2019-03-29 09:00:00 15.1 -- -- 25 Norte 0 -- -- 76
2019-03-29 08:00:00 13.6 -- -- 26 Norte 0 -- -- 84
2019-03-29 07:00:00 12.7 -- -- 28 Norte 0 -- -- 88
2019-03-29 06:00:00 12.5 -- -- 28 Norte 0 -- -- 91
2019-03-29 05:00:00 12.4 -- -- 26 Norte 0 -- -- 89
2019-03-29 04:00:00 12.2 -- -- 27 Norte 0 -- -- 91
2019-03-29 03:00:00 12.3 -- -- 23 Norte 0 -- -- 90
2019-03-29 02:00:00 11.9 -- -- 17 Norte 0 -- -- 91
2019-03-29 01:00:00 12 -- -- 16 Norte 0 -- -- 87
2019-03-29 00:00:00 11.8 -- -- 13 Norte 0 -- -- 86
2019-03-28 23:00:00 11.7 -- -- 12 Norte 0 -- -- 85
2019-03-28 22:00:00 12.4 -- -- 12 Norte 0 -- -- 84
2019-03-28 21:00:00 12.7 -- -- 18 Norte 0 -- -- 82
2019-03-28 20:00:00 12.9 -- -- 19 Norte 0 -- -- 81
2019-03-28 19:00:00 13.3 -- -- 24 Norte 0 -- -- 80
2019-03-28 18:00:00 14.1 -- -- 28 Norte 0 -- -- 74
2019-03-28 17:00:00 15.1 -- -- 28 Norte 0 -- -- 69
2019-03-28 16:00:00 14.4 -- -- 30 Norte 0 -- -- 74
2019-03-28 15:00:00 15.6 -- -- 33 Norte 0 -- -- 72
2019-03-28 14:00:00 14.6 -- -- 34 Norte 0 -- -- 76
2019-03-28 13:00:00 14.8 -- -- 34 Norte 0 -- -- 72
2019-03-28 12:00:00 14.5 -- -- 37 Norte 0 -- -- 71
2019-03-28 11:00:00 14.6 -- -- 38 Norte 0 -- -- 72
2019-03-28 10:00:00 14.5 -- -- 36 Norte 0 -- -- 71
2019-03-28 09:00:00 14.3 -- -- 39 Norte 0 -- -- 77
2019-03-28 08:00:00 13.1 -- -- 37 Norte 0 -- -- 78
2019-03-28 07:00:00 12.3 -- -- 41 Norte 0 -- -- 80
2019-03-28 06:00:00 12 -- -- 39 Norte 0 -- -- 77
2019-03-28 05:00:00 12 -- -- 38 Norte 0 -- -- 81
2019-03-28 04:00:00 12 -- -- 40 Norte 0 -- -- 80
2019-03-28 03:00:00 12.1 -- -- 43 Norte 0 -- -- 79
2019-03-28 02:00:00 12.2 -- -- 42 Norte 0 -- -- 75
2019-03-28 01:00:00 12.5 -- -- 45 Norte 0 -- -- 74
2019-03-28 00:00:00 12.5 -- -- 44 Norte 0 -- -- 75
2019-03-27 23:00:00 12.4 -- -- 30 Norte 0 -- -- 74
2019-03-27 22:00:00 12.4 -- -- 30 Norte 0 -- -- 74
2019-03-27 21:00:00 12.5 -- -- 30 Norte 0 -- -- 71
2019-03-27 20:00:00 12.3 -- -- 33 Norte 0 -- -- 75
2019-03-27 19:00:00 12.2 -- -- 33 Norte 0 -- -- 79
2019-03-27 18:00:00 13 -- -- 35 Norte 0 -- -- 77
2019-03-27 17:00:00 13.9 -- -- 36 Norte 0 -- -- 73
2019-03-27 16:00:00 14.7 -- -- 39 Norte 0 -- -- 68
2019-03-27 15:00:00 15.3 -- -- -- -- -- -- -- 65
2019-03-27 14:00:00 14.3 -- -- 48 Norte 0 -- -- 69
2019-03-27 13:00:00 -- -- -- -- -- -- -- -- --
2019-03-27 12:00:00 14.6 -- -- 46 Norte 0 -- -- 71
2019-03-27 11:00:00 15.3 -- -- 46 Norte 0 -- -- 73
2019-03-27 10:00:00 14.2 -- -- 49 Norte 0 -- -- 77
2019-03-27 09:00:00 13.7 -- -- 46 Norte 0 -- -- 79
2019-03-27 08:00:00 13.2 -- -- 46 Norte 0 -- -- 80
2019-03-27 07:00:00 12.5 -- -- 46 Norte 0 -- -- 86
2019-03-27 06:00:00 12.4 -- -- 48 Norte 0 -- -- 83
2019-03-27 05:00:00 12.5 -- -- 50 Norte 0 -- -- 78
2019-03-27 04:00:00 12.6 -- -- 45 Norte 0 -- -- 76
2019-03-27 03:00:00 12.8 -- -- 44 Norte 0 -- -- 72
2019-03-27 02:00:00 12.6 -- -- 40 Norte 0 -- -- 74
2019-03-27 01:00:00 12.2 -- -- 36 Norte 0 -- -- 70
2019-03-27 00:00:00 12.2 -- -- 31 Norte 0 -- -- 66
2019-03-26 23:00:00 12.2 -- -- 26 Norte 0 -- -- 58
2019-03-26 22:00:00 11.7 -- -- 16 Norte 0 -- -- 61
2019-03-26 21:00:00 11.7 -- -- 19 Norte 0 -- -- 60
2019-03-26 20:00:00 11.7 -- -- 37 Norte 0 -- -- 63
2019-03-26 19:00:00 12 -- -- 50 Norte 0 -- -- 66
2019-03-26 18:00:00 11.9 -- -- 57 Norte 0 -- -- 70
2019-03-26 17:00:00 11.3 -- -- 69 Norte 0 -- -- 82
2019-03-26 16:00:00 12.1 -- -- 65 Norte 0 -- -- 71
2019-03-26 15:00:00 12.9 -- -- 72 Norte 0 -- -- 61
2019-03-26 14:00:00 13 -- -- 67 Norte 0 -- -- 62
2019-03-26 13:00:00 13.6 -- -- 70 Norte 0 -- -- 56
2019-03-26 12:00:00 13.5 -- -- -- -- -- -- -- 57
2019-03-26 11:00:00 -- -- -- -- -- -- -- -- --
2019-03-26 10:00:00 -- -- -- -- -- -- -- -- --
2019-03-26 09:00:00 13.5 -- -- -- -- 0 -- -- 48
2019-03-26 08:00:00 13 -- -- -- -- 0 -- -- 52
2019-03-26 07:00:00 12.8 -- -- -- -- 0 -- -- 51
2019-03-26 06:00:00 13.3 -- -- -- -- 0 -- -- 63
2019-03-26 05:00:00 13.4 -- -- -- -- 0 -- -- 75
2019-03-26 04:00:00 13 -- -- -- -- 0 -- -- 81
2019-03-26 03:00:00 13 -- -- -- -- 0 -- -- 91
2019-03-26 02:00:00 13.2 -- -- -- -- 0 -- -- 87
2019-03-26 01:00:00 13.4 -- -- -- -- 0 -- -- 90
2019-03-26 00:00:00 13 -- -- -- -- 0 -- -- 91
2019-03-25 23:00:00 13.7 -- -- -- -- 0 -- -- 90
2019-03-25 22:00:00 13.8 -- -- -- -- 0 -- -- 89
2019-03-25 21:00:00 14.3 -- -- -- -- 0 -- -- 88
2019-03-25 20:00:00 14.3 -- -- -- -- 0 -- -- 90
2019-03-25 19:00:00 14.5 -- -- -- -- 0 -- -- 87
2019-03-25 18:00:00 14.9 -- -- -- -- 0 -- -- 86
2019-03-25 17:00:00 16.5 -- -- -- -- 0 -- -- 72
2019-03-25 16:00:00 17.6 -- -- -- -- 0 -- -- 71
2019-03-25 15:00:00 16.5 -- -- -- -- 0 -- -- 67
2019-03-25 14:00:00 19.1 -- -- -- -- 0 -- -- 55
2019-03-25 13:00:00 19.9 -- -- -- -- 0 -- -- 52
2019-03-25 12:00:00 19.1 -- -- -- -- 0 -- -- 51
2019-03-25 11:00:00 19 -- -- -- -- 0 -- -- 48
2019-03-25 10:00:00 18.6 -- -- -- -- 0 -- -- 45
2019-03-25 09:00:00 18.4 -- -- -- -- 0 -- -- 48
2019-03-25 08:00:00 16.5 -- -- -- -- 0 -- -- 72
2019-03-25 07:00:00 12.7 -- -- -- -- 0 -- -- 88
2019-03-25 06:00:00 12.8 -- -- -- -- 0 -- -- 94
2019-03-25 05:00:00 12.8 -- -- -- -- 0 -- -- 91
2019-03-25 04:00:00 12.6 -- -- -- -- 0 -- -- 93
2019-03-25 03:00:00 12.7 -- -- -- -- 0 -- -- 94
2019-03-25 02:00:00 13.2 -- -- -- -- 0 -- -- 94
2019-03-25 01:00:00 13.5 -- -- -- -- 0 -- -- 94
2019-03-25 00:00:00 13.4 -- -- -- -- 0 -- -- 92
2019-03-24 23:00:00 14 -- -- -- -- 0 -- -- 91
2019-03-24 22:00:00 13.8 -- -- -- -- 0 -- -- 92
2019-03-24 21:00:00 14.1 -- -- -- -- 0 -- -- 95
2019-03-24 20:00:00 14.7 -- -- -- -- 0 -- -- 94
2019-03-24 19:00:00 14.9 -- -- -- -- 0 -- -- 93
2019-03-24 18:00:00 15.1 -- -- -- -- 0 -- -- 91
2019-03-24 17:00:00 15.6 -- -- -- -- 0 -- -- 91
2019-03-24 16:00:00 16.3 -- -- -- -- 0 -- -- 88
2019-03-24 15:00:00 16.5 -- -- -- -- 0 -- -- 88
2019-03-24 14:00:00 18.5 -- -- -- -- 0 -- -- 81
2019-03-24 13:00:00 18.9 -- -- -- -- 0 -- -- 80
2019-03-24 12:00:00 19.2 -- -- -- -- 0 -- -- 74
2019-03-24 11:00:00 16.7 -- -- -- -- 0 -- -- 61
2019-03-24 10:00:00 17 -- -- -- -- 0 -- -- 68
2019-03-24 09:00:00 17.3 -- -- -- -- 0 -- -- 64
2019-03-24 08:00:00 17.2 -- -- -- -- 0 -- -- 48
2019-03-24 07:00:00 13.5 -- -- -- -- 0 -- -- 57
2019-03-24 06:00:00 12.7 -- -- -- -- 0 -- -- 65
2019-03-24 05:00:00 12.6 -- -- -- -- 0 -- -- 91
2019-03-24 04:00:00 12.6 -- -- -- -- 0 -- -- 87
2019-03-24 03:00:00 12.5 -- -- -- -- 0 -- -- 84
2019-03-24 02:00:00 12.8 -- -- -- -- 0 -- -- 81
2019-03-24 01:00:00 13.4 -- -- -- -- 0 -- -- 79
2019-03-24 00:00:00 14.2 -- -- -- -- 0 -- -- 48
2019-03-23 23:00:00 15.1 -- -- -- -- 0 -- -- 39
2019-03-23 22:00:00 14.9 -- -- -- -- 0 -- -- 41
2019-03-23 21:00:00 15.1 -- -- -- -- 0 -- -- 37
2019-03-23 20:00:00 14.6 -- -- -- -- 0 -- -- 40
2019-03-23 19:00:00 14.8 -- -- -- -- 0 -- -- 51
2019-03-23 18:00:00 15.4 -- -- -- -- 0 -- -- 64
2019-03-23 17:00:00 16.6 -- -- -- -- 0 -- -- 42
2019-03-23 16:00:00 17.4 -- -- -- -- 0 -- -- 48
2019-03-23 15:00:00 17.6 -- -- -- -- 0 -- -- 59
2019-03-23 14:00:00 17.8 -- -- -- -- 0 -- -- 61
2019-03-23 13:00:00 17.1 -- -- -- -- 0 -- -- 67
2019-03-23 12:00:00 16.4 -- -- -- -- 0 -- -- 68
2019-03-23 11:00:00 16.2 -- -- -- -- 0 -- -- 84
2019-03-23 10:00:00 15.3 -- -- -- -- 0 -- -- 84
2019-03-23 09:00:00 14.7 -- -- -- -- 0 -- -- 92
2019-03-23 08:00:00 14.2 -- -- -- -- 0 -- -- 95
2019-03-23 07:00:00 13.3 -- -- -- -- 0 -- -- 95
2019-03-23 06:00:00 13.3 -- -- -- -- 0 -- -- 97
2019-03-23 05:00:00 13.2 -- -- -- -- 0 -- -- 97
2019-03-23 04:00:00 13.3 -- -- -- -- 0 -- -- 97
2019-03-23 03:00:00 13.3 -- -- -- -- 0 -- -- 97
2019-03-23 02:00:00 13.3 -- -- -- -- 0 -- -- 96
2019-03-23 01:00:00 13.2 -- -- -- -- 0 -- -- 96
2019-03-23 00:00:00 13 -- -- -- -- 0 -- -- 96
2019-03-22 23:00:00 13.3 -- -- -- -- 0 -- -- 96
2019-03-22 22:00:00 13.2 -- -- -- -- 0 -- -- 95
2019-03-22 21:00:00 13.7 -- -- -- -- 0 -- -- 95
2019-03-22 20:00:00 13.8 -- -- -- -- 0 -- -- 94
2019-03-22 19:00:00 13.9 -- -- -- -- 0 -- -- 94
2019-03-22 18:00:00 14 -- -- -- -- 0 -- -- 94
2019-03-22 17:00:00 14.2 -- -- -- -- 0 -- -- 93
2019-03-22 16:00:00 14.1 -- -- -- -- 0 -- -- 94
2019-03-22 15:00:00 14.4 -- -- -- -- 0 -- -- 90
2019-03-22 14:00:00 15.6 -- -- -- -- 0 -- -- 87
2019-03-22 13:00:00 15.9 -- -- -- -- 0 -- -- 86
2019-03-22 12:00:00 15.6 -- -- -- -- 0 -- -- 87
2019-03-22 11:00:00 15.8 -- -- -- -- 0 -- -- 87
2019-03-22 10:00:00 14.9 -- -- -- -- 0 -- -- 90
2019-03-22 09:00:00 14.2 -- -- -- -- 0 -- -- 93
2019-03-22 08:00:00 13.9 -- -- -- -- 0 -- -- 94
2019-03-22 07:00:00 13.2 -- -- -- -- 0 -- -- 95
2019-03-22 06:00:00 13.2 -- -- -- -- 0 -- -- 93
2019-03-22 05:00:00 13 -- -- -- -- 0 -- -- 93
2019-03-22 04:00:00 12.9 -- -- -- -- 0 -- -- 92
2019-03-22 03:00:00 12.7 -- -- -- -- 0 -- -- 91
2019-03-22 02:00:00 12.9 -- -- -- -- 0 -- -- 89
2019-03-22 01:00:00 12.9 -- -- -- -- 0 -- -- 87
2019-03-22 00:00:00 12.9 -- -- -- -- 0 -- -- 86
2019-03-21 23:00:00 12.7 -- -- -- -- 0 -- -- 85
2019-03-21 22:00:00 12.6 -- -- -- -- 0 -- -- 87
2019-03-21 21:00:00 12.5 -- -- -- -- 0 -- -- 84
2019-03-21 20:00:00 12.4 -- -- -- -- 0 -- -- 85
2019-03-21 19:00:00 12.4 -- -- -- -- 0 -- -- 84
2019-03-21 18:00:00 12.4 -- -- -- -- 0 -- -- 81
2019-03-21 17:00:00 12.6 -- -- -- -- 0 -- -- 81
2019-03-21 16:00:00 13.1 -- -- -- -- 0 -- -- 82
2019-03-21 15:00:00 13.2 -- -- -- -- 0 -- -- 75
2019-03-21 14:00:00 13.2 -- -- -- -- 0 -- -- 71
2019-03-21 13:00:00 13.5 -- -- -- -- 0 -- -- 70
2019-03-21 12:00:00 13.2 -- -- -- -- 0 -- -- 71
2019-03-21 11:00:00 13.4 -- -- -- -- 0 -- -- 72
2019-03-21 10:00:00 13.3 -- -- -- -- 0 -- -- 69
2019-03-21 09:00:00 13.1 -- -- -- -- 0 -- -- 68
2019-03-21 08:00:00 12.7 -- -- -- -- 0 -- -- 71
2019-03-21 07:00:00 12.3 -- -- -- -- 0 -- -- 74
2019-03-21 06:00:00 12.4 -- -- -- -- 0 -- -- 78
2019-03-21 05:00:00 12.3 -- -- -- -- 0 -- -- 74
2019-03-21 04:00:00 12.2 -- -- -- -- 0.1 -- -- 74
2019-03-21 03:00:00 12.2 -- -- -- -- 0 -- -- 73
2019-03-21 02:00:00 12.2 -- -- -- -- 0 -- -- 73
2019-03-21 01:00:00 12.1 -- -- -- -- 0 -- -- 75
2019-03-21 00:00:00 11.9 -- -- -- -- 0 -- -- 76